sensor_id;sensor_type;location;lat;lon;timestamp;temperature;humidity
52565;DHT22;38460;53.106;7.004;2022-10-23T00:00:29;11.00;99.90
52565;DHT22;38460;53.106;7.004;2022-10-23T00:02:55;11.00;99.90
52565;DHT22;38460;53.106;7.004;2022-10-23T00:05:22;11.00;99.90
52565;DHT22;38460;53.106;7.004;2022-10-23T00:07:52;10.90;99.90
52565;DHT22;38460;53.106;7.004;2022-10-23T00:10:19;10.90;99.90
52565;DHT22;38460;53.106;7.004;2022-10-23T00:12:46;10.90;99.90
52565;DHT22;38460;53.106;7.004;2022-10-23T00:15:13;10.90;99.90
52565;DHT22;38460;53.106;7.004;2022-10-23T00:17:38;10.90;99.90
52565;DHT22;38460;53.106;7.004;2022-10-23T00:20:06;10.90;99.90
52565;DHT22;38460;53.106;7.004;2022-10-23T00:22:32;10.90;99.90
52565;DHT22;38460;53.106;7.004;2022-10-23T00:24:57;10.90;99.90
52565;DHT22;38460;53.106;7.004;2022-10-23T00:27:24;10.90;99.90
52565;DHT22;38460;53.106;7.004;2022-10-23T00:29:50;10.90;99.90
52565;DHT22;38460;53.106;7.004;2022-10-23T00:32:16;10.90;99.90
52565;DHT22;38460;53.106;7.004;2022-10-23T00:34:42;10.90;99.90
52565;DHT22;38460;53.106;7.004;2022-10-23T00:37:07;10.90;99.90
52565;DHT22;38460;53.106;7.004;2022-10-23T00:39:33;10.90;99.90
52565;DHT22;38460;53.106;7.004;2022-10-23T00:41:59;10.80;99.90
52565;DHT22;38460;53.106;7.004;2022-10-23T00:46:50;10.80;99.90
52565;DHT22;38460;53.106;7.004;2022-10-23T00:49:16;10.80;99.90
52565;DHT22;38460;53.106;7.004;2022-10-23T00:51:54;10.80;99.90
52565;DHT22;38460;53.106;7.004;2022-10-23T00:54:23;10.80;99.90
52565;DHT22;38460;53.106;7.004;2022-10-23T00:56:51;10.80;99.90
52565;DHT22;38460;53.106;7.004;2022-10-23T00:59:19;10.80;99.90
52565;DHT22;38460;53.106;7.004;2022-10-23T01:01:44;10.70;99.90
52565;DHT22;38460;53.106;7.004;2022-10-23T01:04:10;10.80;99.90
52565;DHT22;38460;53.106;7.004;2022-10-23T01:12:03;10.80;99.90
52565;DHT22;38460;53.106;7.004;2022-10-23T01:26:12;10.70;99.90
52565;DHT22;38460;53.106;7.004;2022-10-23T01:29:00;10.70;99.90
52565;DHT22;38460;53.106;7.004;2022-10-23T01:31:55;10.70;99.90
52565;DHT22;38460;53.106;7.004;2022-10-23T01:34:31;10.70;99.90
52565;DHT22;38460;53.106;7.004;2022-10-23T01:37:00;10.70;99.90
52565;DHT22;38460;53.106;7.004;2022-10-23T01:39:33;10.70;99.90
52565;DHT22;38460;53.106;7.004;2022-10-23T01:42:10;10.70;99.90
52565;DHT22;38460;53.106;7.004;2022-10-23T01:44:57;10.60;99.90
52565;DHT22;38460;53.106;7.004;2022-10-23T01:47:26;10.70;99.90
52565;DHT22;38460;53.106;7.004;2022-10-23T01:49:55;10.60;99.90
52565;DHT22;38460;53.106;7.004;2022-10-23T01:52:21;10.70;99.90
52565;DHT22;38460;53.106;7.004;2022-10-23T01:54:49;10.60;99.90
52565;DHT22;38460;53.106;7.004;2022-10-23T01:57:17;10.60;99.90
52565;DHT22;38460;53.106;7.004;2022-10-23T01:59:48;10.70;99.90
52565;DHT22;38460;53.106;7.004;2022-10-23T02:02:16;10.60;99.90
52565;DHT22;38460;53.106;7.004;2022-10-23T02:07:21;10.60;99.90
52565;DHT22;38460;53.106;7.004;2022-10-23T02:09:47;10.60;99.90
52565;DHT22;38460;53.106;7.004;2022-10-23T02:12:25;10.60;99.90
52565;DHT22;38460;53.106;7.004;2022-10-23T02:15:07;10.60;99.90
52565;DHT22;38460;53.106;7.004;2022-10-23T02:22:57;10.60;99.90
52565;DHT22;38460;53.106;7.004;2022-10-23T02:25:52;10.60;99.90
52565;DHT22;38460;53.106;7.004;2022-10-23T02:28:25;10.60;99.90
52565;DHT22;38460;53.106;7.004;2022-10-23T02:30:54;10.50;99.90
52565;DHT22;38460;53.106;7.004;2022-10-23T02:33:22;10.50;99.90
52565;DHT22;38460;53.106;7.004;2022-10-23T02:35:49;10.50;99.90
52565;DHT22;38460;53.106;7.004;2022-10-23T02:41:46;10.50;99.90
52565;DHT22;38460;53.106;7.004;2022-10-23T02:49:22;10.50;99.90
52565;DHT22;38460;53.106;7.004;2022-10-23T02:52:23;10.50;99.90
52565;DHT22;38460;53.106;7.004;2022-10-23T02:57:43;10.50;99.90
52565;DHT22;38460;53.106;7.004;2022-10-23T03:00:18;10.50;99.90
52565;DHT22;38460;53.106;7.004;2022-10-23T03:02:57;10.50;99.90
52565;DHT22;38460;53.106;7.004;2022-10-23T03:05:27;10.50;99.90
52565;DHT22;38460;53.106;7.004;2022-10-23T03:07:55;10.50;99.90
52565;DHT22;38460;53.106;7.004;2022-10-23T03:10:21;10.50;99.90
52565;DHT22;38460;53.106;7.004;2022-10-23T03:12:47;10.60;99.90
52565;DHT22;38460;53.106;7.004;2022-10-23T03:15:14;10.60;99.90
52565;DHT22;38460;53.106;7.004;2022-10-23T03:17:41;10.60;99.90
52565;DHT22;38460;53.106;7.004;2022-10-23T03:20:07;10.60;99.90
52565;DHT22;38460;53.106;7.004;2022-10-23T03:22:34;10.60;99.90
52565;DHT22;38460;53.106;7.004;2022-10-23T03:24:59;10.60;99.90
52565;DHT22;38460;53.106;7.004;2022-10-23T03:27:25;10.60;99.90
52565;DHT22;38460;53.106;7.004;2022-10-23T03:29:51;10.60;99.90
52565;DHT22;38460;53.106;7.004;2022-10-23T03:32:16;10.60;99.90
52565;DHT22;38460;53.106;7.004;2022-10-23T03:34:42;10.60;99.90
52565;DHT22;38460;53.106;7.004;2022-10-23T03:37:08;10.60;99.90
52565;DHT22;38460;53.106;7.004;2022-10-23T03:39:34;10.60;99.90
52565;DHT22;38460;53.106;7.004;2022-10-23T03:41:59;10.60;99.90
52565;DHT22;38460;53.106;7.004;2022-10-23T03:44:25;10.70;99.90
52565;DHT22;38460;53.106;7.004;2022-10-23T03:46:51;10.70;99.90
52565;DHT22;38460;53.106;7.004;2022-10-23T03:49:16;10.70;99.90
52565;DHT22;38460;53.106;7.004;2022-10-23T03:51:43;10.70;99.90
52565;DHT22;38460;53.106;7.004;2022-10-23T03:54:09;10.70;99.90
52565;DHT22;38460;53.106;7.004;2022-10-23T03:56:35;10.70;99.90
52565;DHT22;38460;53.106;7.004;2022-10-23T03:59:01;10.60;99.90
52565;DHT22;38460;53.106;7.004;2022-10-23T04:01:27;10.60;99.90
52565;DHT22;38460;53.106;7.004;2022-10-23T04:03:52;10.60;99.90
52565;DHT22;38460;53.106;7.004;2022-10-23T04:06:18;10.60;99.90
52565;DHT22;38460;53.106;7.004;2022-10-23T04:08:44;10.60;99.90
52565;DHT22;38460;53.106;7.004;2022-10-23T04:11:10;10.60;99.90
52565;DHT22;38460;53.106;7.004;2022-10-23T04:13:36;10.60;99.90
52565;DHT22;38460;53.106;7.004;2022-10-23T04:16:02;10.50;99.90
52565;DHT22;38460;53.106;7.004;2022-10-23T04:18:27;10.60;99.90
52565;DHT22;38460;53.106;7.004;2022-10-23T04:20:53;10.60;99.90
52565;DHT22;38460;53.106;7.004;2022-10-23T04:23:19;10.50;99.90
52565;DHT22;38460;53.106;7.004;2022-10-23T04:25:45;10.50;99.90
52565;DHT22;38460;53.106;7.004;2022-10-23T04:28:10;10.50;99.90
52565;DHT22;38460;53.106;7.004;2022-10-23T04:30:36;10.50;99.90
52565;DHT22;38460;53.106;7.004;2022-10-23T04:33:02;10.50;99.90
52565;DHT22;38460;53.106;7.004;2022-10-23T04:35:28;10.40;99.90
52565;DHT22;38460;53.106;7.004;2022-10-23T04:37:54;10.40;99.90
52565;DHT22;38460;53.106;7.004;2022-10-23T04:40:19;10.40;99.90
52565;DHT22;38460;53.106;7.004;2022-10-23T04:42:45;10.40;99.90
52565;DHT22;38460;53.106;7.004;2022-10-23T04:45:11;10.40;99.90
52565;DHT22;38460;53.106;7.004;2022-10-23T04:47:37;10.40;99.90
52565;DHT22;38460;53.106;7.004;2022-10-23T04:50:03;10.40;99.90
52565;DHT22;38460;53.106;7.004;2022-10-23T04:52:29;10.40;99.90
52565;DHT22;38460;53.106;7.004;2022-10-23T04:54:55;10.40;99.90
52565;DHT22;38460;53.106;7.004;2022-10-23T04:57:20;10.40;99.90
52565;DHT22;38460;53.106;7.004;2022-10-23T04:59:46;10.30;99.90
52565;DHT22;38460;53.106;7.004;2022-10-23T05:02:12;10.30;99.90
52565;DHT22;38460;53.106;7.004;2022-10-23T05:04:38;10.30;99.90
52565;DHT22;38460;53.106;7.004;2022-10-23T05:07:03;10.30;99.90
52565;DHT22;38460;53.106;7.004;2022-10-23T05:09:29;10.30;99.90
52565;DHT22;38460;53.106;7.004;2022-10-23T05:11:55;10.30;99.90
52565;DHT22;38460;53.106;7.004;2022-10-23T05:14:21;10.30;99.90
52565;DHT22;38460;53.106;7.004;2022-10-23T05:17:06;10.30;99.90
52565;DHT22;38460;53.106;7.004;2022-10-23T05:19:38;10.30;99.90
52565;DHT22;38460;53.106;7.004;2022-10-23T05:22:06;10.30;99.90
52565;DHT22;38460;53.106;7.004;2022-10-23T05:24:32;10.30;99.90
52565;DHT22;38460;53.106;7.004;2022-10-23T05:26:57;10.30;99.90
52565;DHT22;38460;53.106;7.004;2022-10-23T05:29:23;10.30;99.90
52565;DHT22;38460;53.106;7.004;2022-10-23T05:31:51;10.20;99.90
52565;DHT22;38460;53.106;7.004;2022-10-23T05:34:21;10.30;99.90
52565;DHT22;38460;53.106;7.004;2022-10-23T05:36:47;10.20;99.90
52565;DHT22;38460;53.106;7.004;2022-10-23T05:39:13;10.20;99.90
52565;DHT22;38460;53.106;7.004;2022-10-23T05:41:39;10.20;99.90
52565;DHT22;38460;53.106;7.004;2022-10-23T05:44:04;10.20;99.90
52565;DHT22;38460;53.106;7.004;2022-10-23T05:46:30;10.20;99.90
52565;DHT22;38460;53.106;7.004;2022-10-23T05:48:56;10.20;99.90
52565;DHT22;38460;53.106;7.004;2022-10-23T05:51:22;10.30;99.90
52565;DHT22;38460;53.106;7.004;2022-10-23T05:53:48;10.20;99.90
52565;DHT22;38460;53.106;7.004;2022-10-23T05:56:15;10.20;99.90
52565;DHT22;38460;53.106;7.004;2022-10-23T05:58:41;10.20;99.90
52565;DHT22;38460;53.106;7.004;2022-10-23T06:01:09;10.20;99.90
52565;DHT22;38460;53.106;7.004;2022-10-23T06:03:36;10.20;99.90
52565;DHT22;38460;53.106;7.004;2022-10-23T06:06:02;10.20;99.90
52565;DHT22;38460;53.106;7.004;2022-10-23T06:08:29;10.20;99.90
52565;DHT22;38460;53.106;7.004;2022-10-23T06:10:55;10.20;99.90
52565;DHT22;38460;53.106;7.004;2022-10-23T06:13:20;10.20;99.90
52565;DHT22;38460;53.106;7.004;2022-10-23T06:15:46;10.20;99.90
52565;DHT22;38460;53.106;7.004;2022-10-23T06:18:12;10.10;99.90
52565;DHT22;38460;53.106;7.004;2022-10-23T06:20:38;10.10;99.90
52565;DHT22;38460;53.106;7.004;2022-10-23T06:23:04;10.10;99.90
52565;DHT22;38460;53.106;7.004;2022-10-23T06:25:31;10.10;99.90
52565;DHT22;38460;53.106;7.004;2022-10-23T06:27:57;10.10;99.90
52565;DHT22;38460;53.106;7.004;2022-10-23T06:30:23;10.10;99.90
52565;DHT22;38460;53.106;7.004;2022-10-23T06:32:49;10.10;99.90
52565;DHT22;38460;53.106;7.004;2022-10-23T06:35:16;10.20;99.90
52565;DHT22;38460;53.106;7.004;2022-10-23T06:37:41;10.20;99.90
52565;DHT22;38460;53.106;7.004;2022-10-23T06:40:08;10.20;99.90
52565;DHT22;38460;53.106;7.004;2022-10-23T06:42:34;10.20;99.90
52565;DHT22;38460;53.106;7.004;2022-10-23T06:45:00;10.20;99.90
52565;DHT22;38460;53.106;7.004;2022-10-23T06:47:25;10.20;99.90
52565;DHT22;38460;53.106;7.004;2022-10-23T06:49:51;10.20;99.90
52565;DHT22;38460;53.106;7.004;2022-10-23T06:52:17;10.20;99.90
52565;DHT22;38460;53.106;7.004;2022-10-23T06:54:42;10.20;99.90
52565;DHT22;38460;53.106;7.004;2022-10-23T06:57:08;10.20;99.90
52565;DHT22;38460;53.106;7.004;2022-10-23T06:59:34;10.20;99.90
52565;DHT22;38460;53.106;7.004;2022-10-23T07:02:00;10.20;99.90
52565;DHT22;38460;53.106;7.004;2022-10-23T07:04:25;10.20;99.90
52565;DHT22;38460;53.106;7.004;2022-10-23T07:06:54;10.20;99.90
52565;DHT22;38460;53.106;7.004;2022-10-23T07:09:21;10.30;99.90
52565;DHT22;38460;53.106;7.004;2022-10-23T07:11:46;10.30;99.90
52565;DHT22;38460;53.106;7.004;2022-10-23T07:14:12;10.30;99.90
52565;DHT22;38460;53.106;7.004;2022-10-23T07:16:38;10.30;99.90
52565;DHT22;38460;53.106;7.004;2022-10-23T07:19:03;10.30;99.90
52565;DHT22;38460;53.106;7.004;2022-10-23T07:21:33;10.40;99.90
52565;DHT22;38460;53.106;7.004;2022-10-23T07:24:02;10.30;99.90
52565;DHT22;38460;53.106;7.004;2022-10-23T07:26:28;10.40;99.90
52565;DHT22;38460;53.106;7.004;2022-10-23T07:28:54;10.40;99.90
52565;DHT22;38460;53.106;7.004;2022-10-23T07:31:24;10.40;99.90
52565;DHT22;38460;53.106;7.004;2022-10-23T07:33:51;10.40;99.90
52565;DHT22;38460;53.106;7.004;2022-10-23T07:36:17;10.40;99.90
52565;DHT22;38460;53.106;7.004;2022-10-23T07:38:43;10.40;99.90
52565;DHT22;38460;53.106;7.004;2022-10-23T07:41:10;10.50;99.90
52565;DHT22;38460;53.106;7.004;2022-10-23T07:43:36;10.50;99.90
52565;DHT22;38460;53.106;7.004;2022-10-23T07:46:02;10.50;99.90
52565;DHT22;38460;53.106;7.004;2022-10-23T07:48:29;10.60;99.90
52565;DHT22;38460;53.106;7.004;2022-10-23T07:51:03;10.60;99.90
52565;DHT22;38460;53.106;7.004;2022-10-23T07:53:33;10.60;99.90
52565;DHT22;38460;53.106;7.004;2022-10-23T07:56:09;10.70;99.90
52565;DHT22;38460;53.106;7.004;2022-10-23T07:58:36;10.70;99.90
52565;DHT22;38460;53.106;7.004;2022-10-23T08:01:03;10.70;99.90
52565;DHT22;38460;53.106;7.004;2022-10-23T08:03:32;10.70;99.90
52565;DHT22;38460;53.106;7.004;2022-10-23T08:05:58;10.80;99.90
52565;DHT22;38460;53.106;7.004;2022-10-23T08:08:25;10.80;99.90
52565;DHT22;38460;53.106;7.004;2022-10-23T08:10:52;10.90;99.90
52565;DHT22;38460;53.106;7.004;2022-10-23T08:13:19;10.90;99.90
52565;DHT22;38460;53.106;7.004;2022-10-23T08:15:47;10.90;99.90
52565;DHT22;38460;53.106;7.004;2022-10-23T08:18:13;11.00;99.90
52565;DHT22;38460;53.106;7.004;2022-10-23T08:20:43;11.00;99.90
52565;DHT22;38460;53.106;7.004;2022-10-23T08:23:09;11.10;99.90
52565;DHT22;38460;53.106;7.004;2022-10-23T08:25:37;11.10;99.90
52565;DHT22;38460;53.106;7.004;2022-10-23T08:28:04;11.10;99.90
52565;DHT22;38460;53.106;7.004;2022-10-23T08:30:30;11.20;99.90
52565;DHT22;38460;53.106;7.004;2022-10-23T08:32:56;11.30;99.90
52565;DHT22;38460;53.106;7.004;2022-10-23T08:35:22;11.30;99.90
52565;DHT22;38460;53.106;7.004;2022-10-23T08:37:47;11.40;99.90
52565;DHT22;38460;53.106;7.004;2022-10-23T08:40:24;11.40;99.90
52565;DHT22;38460;53.106;7.004;2022-10-23T08:43:35;11.40;99.90
52565;DHT22;38460;53.106;7.004;2022-10-23T08:46:14;11.50;99.90
52565;DHT22;38460;53.106;7.004;2022-10-23T08:48:52;11.50;99.90
52565;DHT22;38460;53.106;7.004;2022-10-23T08:53:56;11.60;99.90
52565;DHT22;38460;53.106;7.004;2022-10-23T08:56:34;11.70;99.90
52565;DHT22;38460;53.106;7.004;2022-10-23T08:59:27;11.70;99.90
52565;DHT22;38460;53.106;7.004;2022-10-23T09:04:35;11.90;99.90
52565;DHT22;38460;53.106;7.004;2022-10-23T09:13:08;12.10;99.90
52565;DHT22;38460;53.106;7.004;2022-10-23T09:15:46;12.10;99.90
52565;DHT22;38460;53.106;7.004;2022-10-23T09:18:15;12.20;99.90
52565;DHT22;38460;53.106;7.004;2022-10-23T09:20:44;12.20;99.90
52565;DHT22;38460;53.106;7.004;2022-10-23T09:23:16;12.30;99.90
52565;DHT22;38460;53.106;7.004;2022-10-23T09:25:44;12.30;99.90
52565;DHT22;38460;53.106;7.004;2022-10-23T09:28:24;12.40;99.90
52565;DHT22;38460;53.106;7.004;2022-10-23T09:53:46;13.00;99.90
52565;DHT22;38460;53.106;7.004;2022-10-23T10:01:28;13.20;99.90
52565;DHT22;38460;53.106;7.004;2022-10-23T10:03:54;13.30;99.90
52565;DHT22;38460;53.106;7.004;2022-10-23T10:06:31;13.30;99.90
52565;DHT22;38460;53.106;7.004;2022-10-23T10:09:04;13.40;99.90
52565;DHT22;38460;53.106;7.004;2022-10-23T10:11:54;13.40;99.90
52565;DHT22;38460;53.106;7.004;2022-10-23T10:14:52;13.50;99.90
52565;DHT22;38460;53.106;7.004;2022-10-23T10:17:42;13.50;99.90
52565;DHT22;38460;53.106;7.004;2022-10-23T10:29:04;13.80;99.90
52565;DHT22;38460;53.106;7.004;2022-10-23T10:32:03;13.90;99.90
52565;DHT22;38460;53.106;7.004;2022-10-23T10:37:25;14.00;99.90
52565;DHT22;38460;53.106;7.004;2022-10-23T10:40:12;14.10;99.90
52565;DHT22;38460;53.106;7.004;2022-10-23T10:45:36;14.30;99.90
52565;DHT22;38460;53.106;7.004;2022-10-23T10:50:47;14.40;99.90
52565;DHT22;38460;53.106;7.004;2022-10-23T10:56:11;14.50;99.90
52565;DHT22;38460;53.106;7.004;2022-10-23T10:58:38;14.50;99.90
52565;DHT22;38460;53.106;7.004;2022-10-23T11:01:19;14.60;99.90
52565;DHT22;38460;53.106;7.004;2022-10-23T11:06:53;14.70;99.90
52565;DHT22;38460;53.106;7.004;2022-10-23T11:09:24;14.70;99.90
52565;DHT22;38460;53.106;7.004;2022-10-23T11:11:51;14.80;99.90
52565;DHT22;38460;53.106;7.004;2022-10-23T11:14:20;14.80;99.90
52565;DHT22;38460;53.106;7.004;2022-10-23T11:17:52;14.90;99.90
52565;DHT22;38460;53.106;7.004;2022-10-23T11:22:41;14.90;99.90
52565;DHT22;38460;53.106;7.004;2022-10-23T11:33:51;15.00;99.90
52565;DHT22;38460;53.106;7.004;2022-10-23T11:39:33;15.10;99.90
52565;DHT22;38460;53.106;7.004;2022-10-23T11:44:43;15.10;99.90
52565;DHT22;38460;53.106;7.004;2022-10-23T11:51:05;15.20;99.90
52565;DHT22;38460;53.106;7.004;2022-10-23T12:01:40;15.20;99.90
52565;DHT22;38460;53.106;7.004;2022-10-23T12:14:40;15.20;99.90
52565;DHT22;38460;53.106;7.004;2022-10-23T12:19:50;15.30;99.90
52565;DHT22;38460;53.106;7.004;2022-10-23T12:22:16;15.30;99.90
52565;DHT22;38460;53.106;7.004;2022-10-23T12:25:00;15.30;99.90
52565;DHT22;38460;53.106;7.004;2022-10-23T12:28:04;15.30;99.90
52565;DHT22;38460;53.106;7.004;2022-10-23T12:33:56;15.30;99.90
52565;DHT22;38460;53.106;7.004;2022-10-23T12:36:47;15.30;99.90
52565;DHT22;38460;53.106;7.004;2022-10-23T12:39:34;15.40;99.90
52565;DHT22;38460;53.106;7.004;2022-10-23T12:42:08;15.40;99.90
52565;DHT22;38460;53.106;7.004;2022-10-23T12:44:35;15.40;99.90
52565;DHT22;38460;53.106;7.004;2022-10-23T12:47:02;15.40;99.90
52565;DHT22;38460;53.106;7.004;2022-10-23T12:49:30;15.50;99.90
52565;DHT22;38460;53.106;7.004;2022-10-23T12:52:02;15.50;99.90
52565;DHT22;38460;53.106;7.004;2022-10-23T12:54:30;15.50;99.90
52565;DHT22;38460;53.106;7.004;2022-10-23T12:56:56;15.60;99.90
52565;DHT22;38460;53.106;7.004;2022-10-23T12:59:27;15.60;99.90
52565;DHT22;38460;53.106;7.004;2022-10-23T13:01:55;15.60;99.90
52565;DHT22;38460;53.106;7.004;2022-10-23T13:04:24;15.60;99.90
52565;DHT22;38460;53.106;7.004;2022-10-23T13:07:00;15.70;99.90
52565;DHT22;38460;53.106;7.004;2022-10-23T13:09:34;15.70;99.90
52565;DHT22;38460;53.106;7.004;2022-10-23T13:12:02;15.70;99.90
52565;DHT22;38460;53.106;7.004;2022-10-23T13:14:36;15.70;99.90
52565;DHT22;38460;53.106;7.004;2022-10-23T13:17:04;15.70;99.90
52565;DHT22;38460;53.106;7.004;2022-10-23T13:19:31;15.70;99.90
52565;DHT22;38460;53.106;7.004;2022-10-23T13:21:58;15.70;99.90
52565;DHT22;38460;53.106;7.004;2022-10-23T13:24:26;15.80;99.90
52565;DHT22;38460;53.106;7.004;2022-10-23T13:26:53;15.80;99.90
52565;DHT22;38460;53.106;7.004;2022-10-23T13:29:33;15.80;99.90
52565;DHT22;38460;53.106;7.004;2022-10-23T13:32:21;15.80;99.90
52565;DHT22;38460;53.106;7.004;2022-10-23T13:34:51;15.80;99.90
52565;DHT22;38460;53.106;7.004;2022-10-23T13:37:25;15.80;99.90
52565;DHT22;38460;53.106;7.004;2022-10-23T13:40:06;15.80;99.90
52565;DHT22;38460;53.106;7.004;2022-10-23T13:42:34;15.80;99.90
52565;DHT22;38460;53.106;7.004;2022-10-23T13:45:00;15.80;99.90
52565;DHT22;38460;53.106;7.004;2022-10-23T13:47:26;15.90;99.90
52565;DHT22;38460;53.106;7.004;2022-10-23T13:49:52;15.90;99.90
52565;DHT22;38460;53.106;7.004;2022-10-23T13:52:20;15.90;99.90
52565;DHT22;38460;53.106;7.004;2022-10-23T13:54:48;15.90;99.90
52565;DHT22;38460;53.106;7.004;2022-10-23T13:57:14;15.90;99.90
52565;DHT22;38460;53.106;7.004;2022-10-23T13:59:41;15.90;99.90
52565;DHT22;38460;53.106;7.004;2022-10-23T14:02:19;15.80;99.90
52565;DHT22;38460;53.106;7.004;2022-10-23T14:04:46;15.80;99.90
52565;DHT22;38460;53.106;7.004;2022-10-23T14:07:12;15.80;99.90
52565;DHT22;38460;53.106;7.004;2022-10-23T14:09:38;15.80;99.90
52565;DHT22;38460;53.106;7.004;2022-10-23T14:12:03;15.80;99.90
52565;DHT22;38460;53.106;7.004;2022-10-23T14:14:29;15.80;99.90
52565;DHT22;38460;53.106;7.004;2022-10-23T14:16:55;15.80;99.90
52565;DHT22;38460;53.106;7.004;2022-10-23T14:19:20;15.80;99.90
52565;DHT22;38460;53.106;7.004;2022-10-23T14:21:46;15.80;99.90
52565;DHT22;38460;53.106;7.004;2022-10-23T14:24:12;15.80;99.90
52565;DHT22;38460;53.106;7.004;2022-10-23T14:26:39;15.80;99.90
52565;DHT22;38460;53.106;7.004;2022-10-23T14:29:05;15.70;99.90
52565;DHT22;38460;53.106;7.004;2022-10-23T14:31:31;15.70;99.90
52565;DHT22;38460;53.106;7.004;2022-10-23T14:33:57;15.70;99.90
52565;DHT22;38460;53.106;7.004;2022-10-23T14:36:25;15.70;99.90
52565;DHT22;38460;53.106;7.004;2022-10-23T14:38:55;15.70;99.90
52565;DHT22;38460;53.106;7.004;2022-10-23T14:41:22;15.70;99.90
52565;DHT22;38460;53.106;7.004;2022-10-23T14:43:48;15.70;99.90
52565;DHT22;38460;53.106;7.004;2022-10-23T14:46:22;15.70;99.90
52565;DHT22;38460;53.106;7.004;2022-10-23T14:48:47;15.60;99.90
52565;DHT22;38460;53.106;7.004;2022-10-23T14:51:34;15.60;99.90
52565;DHT22;38460;53.106;7.004;2022-10-23T14:54:04;15.60;99.90
52565;DHT22;38460;53.106;7.004;2022-10-23T14:56:32;15.60;99.90
52565;DHT22;38460;53.106;7.004;2022-10-23T14:58:58;15.60;99.90
52565;DHT22;38460;53.106;7.004;2022-10-23T15:01:32;15.60;99.90
52565;DHT22;38460;53.106;7.004;2022-10-23T15:03:58;15.60;99.90
52565;DHT22;38460;53.106;7.004;2022-10-23T15:06:24;15.60;99.90
52565;DHT22;38460;53.106;7.004;2022-10-23T15:08:51;15.60;99.90
52565;DHT22;38460;53.106;7.004;2022-10-23T15:11:17;15.60;99.90
52565;DHT22;38460;53.106;7.004;2022-10-23T15:13:43;15.60;99.90
52565;DHT22;38460;53.106;7.004;2022-10-23T15:16:09;15.60;99.90
52565;DHT22;38460;53.106;7.004;2022-10-23T15:18:36;15.60;99.90
52565;DHT22;38460;53.106;7.004;2022-10-23T15:21:03;15.60;99.90
52565;DHT22;38460;53.106;7.004;2022-10-23T15:23:37;15.50;99.90
52565;DHT22;38460;53.106;7.004;2022-10-23T15:26:07;15.50;99.90
52565;DHT22;38460;53.106;7.004;2022-10-23T15:28:33;15.50;99.90
52565;DHT22;38460;53.106;7.004;2022-10-23T15:30:59;15.50;99.90
52565;DHT22;38460;53.106;7.004;2022-10-23T15:33:26;15.50;99.90
52565;DHT22;38460;53.106;7.004;2022-10-23T15:35:52;15.50;99.90
52565;DHT22;38460;53.106;7.004;2022-10-23T15:38:18;15.50;99.90
52565;DHT22;38460;53.106;7.004;2022-10-23T15:40:44;15.40;99.90
52565;DHT22;38460;53.106;7.004;2022-10-23T15:43:14;15.40;99.90
52565;DHT22;38460;53.106;7.004;2022-10-23T15:45:40;15.40;99.90
52565;DHT22;38460;53.106;7.004;2022-10-23T15:48:07;15.40;99.90
52565;DHT22;38460;53.106;7.004;2022-10-23T15:50:34;15.40;99.90
52565;DHT22;38460;53.106;7.004;2022-10-23T15:53:00;15.40;99.90
52565;DHT22;38460;53.106;7.004;2022-10-23T15:55:26;15.40;99.90
52565;DHT22;38460;53.106;7.004;2022-10-23T15:57:52;15.40;99.90
52565;DHT22;38460;53.106;7.004;2022-10-23T16:00:18;15.30;99.90
52565;DHT22;38460;53.106;7.004;2022-10-23T16:02:44;15.30;99.90
52565;DHT22;38460;53.106;7.004;2022-10-23T16:05:09;15.30;99.90
52565;DHT22;38460;53.106;7.004;2022-10-23T16:07:35;15.30;99.90
52565;DHT22;38460;53.106;7.004;2022-10-23T16:10:01;15.30;99.90
52565;DHT22;38460;53.106;7.004;2022-10-23T16:12:27;15.30;99.90
52565;DHT22;38460;53.106;7.004;2022-10-23T16:14:52;15.30;99.90
52565;DHT22;38460;53.106;7.004;2022-10-23T16:17:18;15.20;99.90
52565;DHT22;38460;53.106;7.004;2022-10-23T16:19:44;15.20;99.90
52565;DHT22;38460;53.106;7.004;2022-10-23T16:22:11;15.20;99.90
52565;DHT22;38460;53.106;7.004;2022-10-23T16:24:37;15.20;99.90
52565;DHT22;38460;53.106;7.004;2022-10-23T16:27:03;15.10;99.90
52565;DHT22;38460;53.106;7.004;2022-10-23T16:29:29;15.10;99.90
52565;DHT22;38460;53.106;7.004;2022-10-23T16:31:55;15.20;99.90
52565;DHT22;38460;53.106;7.004;2022-10-23T16:34:22;15.10;99.90
52565;DHT22;38460;53.106;7.004;2022-10-23T16:36:48;15.10;99.90
52565;DHT22;38460;53.106;7.004;2022-10-23T16:39:15;15.00;99.90
52565;DHT22;38460;53.106;7.004;2022-10-23T16:41:41;15.10;99.90
52565;DHT22;38460;53.106;7.004;2022-10-23T16:44:07;15.00;99.90
52565;DHT22;38460;53.106;7.004;2022-10-23T16:46:33;15.00;99.90
52565;DHT22;38460;53.106;7.004;2022-10-23T16:49:00;15.00;99.90
52565;DHT22;38460;53.106;7.004;2022-10-23T16:51:28;15.00;99.90
52565;DHT22;38460;53.106;7.004;2022-10-23T16:53:56;15.00;99.90
52565;DHT22;38460;53.106;7.004;2022-10-23T16:56:25;14.90;99.90
52565;DHT22;38460;53.106;7.004;2022-10-23T16:58:53;15.00;99.90
52565;DHT22;38460;53.106;7.004;2022-10-23T17:01:21;14.90;99.90
52565;DHT22;38460;53.106;7.004;2022-10-23T17:03:49;14.90;99.90
52565;DHT22;38460;53.106;7.004;2022-10-23T17:06:24;14.90;99.90
52565;DHT22;38460;53.106;7.004;2022-10-23T17:08:50;14.90;99.90
52565;DHT22;38460;53.106;7.004;2022-10-23T17:11:31;14.80;99.90
52565;DHT22;38460;53.106;7.004;2022-10-23T17:14:09;14.80;99.90
52565;DHT22;38460;53.106;7.004;2022-10-23T17:19:04;14.80;99.90
52565;DHT22;38460;53.106;7.004;2022-10-23T17:21:33;14.70;99.90
52565;DHT22;38460;53.106;7.004;2022-10-23T17:23:59;14.70;99.90
52565;DHT22;38460;53.106;7.004;2022-10-23T17:26:24;14.70;99.90
52565;DHT22;38460;53.106;7.004;2022-10-23T17:28:51;14.60;99.90
52565;DHT22;38460;53.106;7.004;2022-10-23T17:31:19;14.70;99.90
52565;DHT22;38460;53.106;7.004;2022-10-23T17:33:47;14.60;99.90
52565;DHT22;38460;53.106;7.004;2022-10-23T17:36:14;14.60;99.90
52565;DHT22;38460;53.106;7.004;2022-10-23T17:38:41;14.60;99.90
52565;DHT22;38460;53.106;7.004;2022-10-23T17:41:09;14.60;99.90
52565;DHT22;38460;53.106;7.004;2022-10-23T17:43:35;14.60;99.90
52565;DHT22;38460;53.106;7.004;2022-10-23T17:46:05;14.60;99.90
52565;DHT22;38460;53.106;7.004;2022-10-23T17:48:32;14.60;99.90
52565;DHT22;38460;53.106;7.004;2022-10-23T17:51:07;14.60;99.90
52565;DHT22;38460;53.106;7.004;2022-10-23T17:53:34;14.60;99.90
52565;DHT22;38460;53.106;7.004;2022-10-23T17:56:02;14.60;99.90
52565;DHT22;38460;53.106;7.004;2022-10-23T17:58:28;14.60;99.90
52565;DHT22;38460;53.106;7.004;2022-10-23T18:00:55;14.60;99.90
52565;DHT22;38460;53.106;7.004;2022-10-23T18:03:20;14.60;99.90
52565;DHT22;38460;53.106;7.004;2022-10-23T18:05:46;14.60;99.90
52565;DHT22;38460;53.106;7.004;2022-10-23T18:08:12;14.60;99.90
52565;DHT22;38460;53.106;7.004;2022-10-23T18:10:38;14.50;99.90